BEL6BY EGBB-EBBR
Flight info
| Callsign | BEL6BY |
|---|---|
| Flight time | 0h 48m |
| Altitude | 29000 |
| Route | COWLY Q70 VABIK/N0414F230 Q70 KOK |
| Aircraft | A319/M-SDE3FGHIRWY/LB1 |
Departure
| Time | 2026-05-06 22:05 |
|---|---|
| Airport | Birmingham Airport (EGBB) |
Arrival
| Time | 2026-05-06 22:53 |
|---|---|
| Airport | Brussels Airport (EBBR) |
| Time | Latitude | Longitude | Altitude | Speed | Heading |
|---|---|---|---|---|---|
| 2026-05-06 21:45 | 52.45178 | -1.73749 | 328 ft | 0 kts | 324° |
| 2026-05-06 21:57 | 52.45175 | -1.73746 | 328 ft | 2 kts | 325° |
| 2026-05-06 21:58 | 52.45163 | -1.73732 | 329 ft | 2 kts | 324° |
| 2026-05-06 21:58 | 52.45151 | -1.73718 | 329 ft | 2 kts | 324° |
| 2026-05-06 21:58 | 52.45139 | -1.73705 | 330 ft | 2 kts | 324° |
| 2026-05-06 21:58 | 52.45128 | -1.73691 | 330 ft | 1 kts | 324° |
| 2026-05-06 21:59 | 52.45122 | -1.73686 | 331 ft | 1 kts | 299° |
| 2026-05-06 21:59 | 52.45121 | -1.73673 | 331 ft | 0 kts | 244° |
| 2026-05-06 21:59 | 52.45124 | -1.73666 | 331 ft | 1 kts | 231° |
| 2026-05-06 21:59 | 52.45126 | -1.73662 | 332 ft | 0 kts | 235° |
| 2026-05-06 22:01 | 52.45121 | -1.73677 | 331 ft | 4 kts | 237° |
| 2026-05-06 22:01 | 52.45085 | -1.73738 | 328 ft | 10 kts | 203° |
| 2026-05-06 22:02 | 52.45018 | -1.73727 | 330 ft | 10 kts | 147° |
| 2026-05-06 22:02 | 52.44961 | -1.73666 | 332 ft | 9 kts | 146° |
| 2026-05-06 22:02 | 52.44909 | -1.73649 | 334 ft | 8 kts | 196° |
| 2026-05-06 22:02 | 52.44847 | -1.73680 | 334 ft | 10 kts | 197° |
| 2026-05-06 22:03 | 52.44776 | -1.73714 | 335 ft | 11 kts | 196° |
| 2026-05-06 22:03 | 52.44715 | -1.73793 | 335 ft | 12 kts | 236° |
| 2026-05-06 22:03 | 52.44662 | -1.73921 | 335 ft | 13 kts | 236° |
| 2026-05-06 22:03 | 52.44674 | -1.74012 | 335 ft | 10 kts | 323° |
| 2026-05-06 22:04 | 52.44682 | -1.74021 | 335 ft | 1 kts | 326° |
| 2026-05-06 22:04 | 52.44708 | -1.74049 | 335 ft | 16 kts | 326° |
| 2026-05-06 22:04 | 52.45049 | -1.74427 | 333 ft | 100 kts | 326° |
| 2026-05-06 22:04 | 52.45826 | -1.75290 | 369 ft | 161 kts | 327° |
| 2026-05-06 22:05 | 52.46745 | -1.76302 | 1133 ft | 159 kts | 328° |
| 2026-05-06 22:05 | 52.47643 | -1.77300 | 1938 ft | 160 kts | 329° |
| 2026-05-06 22:05 | 52.48576 | -1.78335 | 2625 ft | 170 kts | 329° |
| 2026-05-06 22:05 | 52.49624 | -1.79368 | 3232 ft | 185 kts | 342° |
| 2026-05-06 22:06 | 52.50884 | -1.79272 | 3851 ft | 195 kts | 26° |
| 2026-05-06 22:06 | 52.51862 | -1.77681 | 4478 ft | 211 kts | 58° |
| 2026-05-06 22:06 | 52.52634 | -1.75501 | 5085 ft | 231 kts | 58° |
| 2026-05-06 22:06 | 52.53438 | -1.73201 | 5985 ft | 239 kts | 67° |
| 2026-05-06 22:07 | 52.53617 | -1.70479 | 6747 ft | 255 kts | 101° |
| 2026-05-06 22:07 | 52.52899 | -1.67736 | 7416 ft | 273 kts | 117° |
| 2026-05-06 22:07 | 52.51998 | -1.64939 | 8245 ft | 284 kts | 116° |
| 2026-05-06 22:07 | 52.51094 | -1.62062 | 9207 ft | 289 kts | 116° |
| 2026-05-06 22:08 | 52.50187 | -1.59130 | 10143 ft | 293 kts | 116° |
| 2026-05-06 22:08 | 52.49271 | -1.56152 | 10900 ft | 304 kts | 116° |
| 2026-05-06 22:08 | 52.48286 | -1.52936 | 11438 ft | 323 kts | 116° |
| 2026-05-06 22:08 | 52.47256 | -1.49568 | 11915 ft | 342 kts | 116° |
| 2026-05-06 22:09 | 52.46172 | -1.46024 | 12442 ft | 357 kts | 116° |
| 2026-05-06 22:09 | 52.45048 | -1.42356 | 13225 ft | 364 kts | 116° |
| 2026-05-06 22:09 | 52.43922 | -1.38682 | 14033 ft | 368 kts | 116° |
| 2026-05-06 22:09 | 52.42769 | -1.34924 | 14862 ft | 372 kts | 117° |
| 2026-05-06 22:10 | 52.41595 | -1.31102 | 15634 ft | 377 kts | 117° |
| 2026-05-06 22:10 | 52.40432 | -1.27323 | 16376 ft | 381 kts | 117° |
| 2026-05-06 22:10 | 52.39230 | -1.23424 | 17102 ft | 385 kts | 117° |
| 2026-05-06 22:10 | 52.38026 | -1.19522 | 17807 ft | 389 kts | 117° |
| 2026-05-06 22:11 | 52.36802 | -1.15564 | 18486 ft | 392 kts | 117° |
| 2026-05-06 22:11 | 52.35578 | -1.11611 | 19124 ft | 396 kts | 117° |
| 2026-05-06 22:11 | 52.34330 | -1.07589 | 19759 ft | 400 kts | 117° |
| 2026-05-06 22:11 | 52.33065 | -1.03521 | 20384 ft | 404 kts | 117° |
| 2026-05-06 22:12 | 52.31800 | -0.99459 | 20988 ft | 407 kts | 117° |
| 2026-05-06 22:12 | 52.30503 | -0.95298 | 21566 ft | 411 kts | 117° |
| 2026-05-06 22:12 | 52.29219 | -0.91182 | 22111 ft | 415 kts | 117° |
| 2026-05-06 22:12 | 52.27913 | -0.87001 | 22647 ft | 418 kts | 117° |
| 2026-05-06 22:13 | 52.26589 | -0.82777 | 23179 ft | 422 kts | 117° |
| 2026-05-06 22:13 | 52.25248 | -0.78504 | 23690 ft | 425 kts | 117° |
| 2026-05-06 22:13 | 52.23899 | -0.74213 | 24159 ft | 430 kts | 117° |
| 2026-05-06 22:13 | 52.22530 | -0.69872 | 24500 ft | 437 kts | 117° |
| 2026-05-06 22:14 | 52.21130 | -0.65435 | 24941 ft | 441 kts | 117° |
| 2026-05-06 22:14 | 52.19725 | -0.60994 | 25430 ft | 444 kts | 117° |
| 2026-05-06 22:14 | 52.18313 | -0.56534 | 25900 ft | 447 kts | 117° |
| 2026-05-06 22:14 | 52.16898 | -0.52072 | 26341 ft | 450 kts | 117° |
| 2026-05-06 22:15 | 52.15462 | -0.47553 | 26774 ft | 453 kts | 117° |
| 2026-05-06 22:15 | 52.14001 | -0.42967 | 27203 ft | 456 kts | 117° |
| 2026-05-06 22:15 | 52.12549 | -0.38413 | 27607 ft | 459 kts | 117° |
| 2026-05-06 22:15 | 52.11072 | -0.33791 | 28129 ft | 459 kts | 118° |
| 2026-05-06 22:16 | 52.09624 | -0.29265 | 28743 ft | 457 kts | 118° |
| 2026-05-06 22:16 | 52.08160 | -0.24702 | 29340 ft | 455 kts | 118° |
| 2026-05-06 22:16 | 52.06705 | -0.20174 | 29764 ft | 457 kts | 118° |
| 2026-05-06 22:16 | 52.05234 | -0.15605 | 30155 ft | 459 kts | 118° |
| 2026-05-06 22:17 | 52.03743 | -0.10986 | 30662 ft | 458 kts | 118° |
| 2026-05-06 22:17 | 52.02268 | -0.06421 | 31175 ft | 457 kts | 118° |
| 2026-05-06 22:17 | 52.00815 | -0.01934 | 31641 ft | 456 kts | 118° |
| 2026-05-06 22:17 | 51.99334 | 0.02633 | 32034 ft | 456 kts | 118° |
| 2026-05-06 22:18 | 51.97861 | 0.07164 | 32367 ft | 458 kts | 118° |
| 2026-05-06 22:18 | 51.96376 | 0.11724 | 32693 ft | 460 kts | 118° |
| 2026-05-06 22:18 | 51.94887 | 0.16289 | 32988 ft | 461 kts | 118° |
| 2026-05-06 22:18 | 51.93380 | 0.20902 | 33039 ft | 463 kts | 118° |
| 2026-05-06 22:19 | 51.90378 | 0.30064 | 33047 ft | 463 kts | 118° |
| 2026-05-06 22:19 | 51.87364 | 0.39227 | 33048 ft | 463 kts | 118° |
| 2026-05-06 22:20 | 51.84341 | 0.48384 | 33044 ft | 464 kts | 118° |
| 2026-05-06 22:20 | 51.81309 | 0.57540 | 33046 ft | 463 kts | 118° |
| 2026-05-06 22:21 | 51.78285 | 0.66634 | 33040 ft | 464 kts | 119° |
| 2026-05-06 22:21 | 51.75230 | 0.75783 | 33030 ft | 464 kts | 119° |
| 2026-05-06 22:22 | 51.72171 | 0.84912 | 33022 ft | 465 kts | 119° |
| 2026-05-06 22:22 | 51.69104 | 0.94031 | 33019 ft | 465 kts | 119° |
| 2026-05-06 22:23 | 51.66020 | 1.03170 | 33018 ft | 465 kts | 119° |
| 2026-05-06 22:23 | 51.62951 | 1.12228 | 33016 ft | 464 kts | 119° |
| 2026-05-06 22:24 | 51.59860 | 1.21324 | 33016 ft | 464 kts | 119° |
| 2026-05-06 22:24 | 51.56786 | 1.30334 | 33016 ft | 464 kts | 119° |
| 2026-05-06 22:25 | 51.53680 | 1.39406 | 33015 ft | 463 kts | 119° |
| 2026-05-06 22:25 | 51.50587 | 1.48407 | 33014 ft | 464 kts | 119° |
| 2026-05-06 22:26 | 51.47479 | 1.57419 | 33015 ft | 464 kts | 119° |
| 2026-05-06 22:26 | 51.44343 | 1.66478 | 33016 ft | 463 kts | 120° |
| 2026-05-06 22:27 | 51.41245 | 1.75396 | 33015 ft | 463 kts | 120° |
| 2026-05-06 22:27 | 51.38115 | 1.84378 | 33013 ft | 463 kts | 120° |
| 2026-05-06 22:28 | 51.34979 | 1.93342 | 33015 ft | 462 kts | 120° |
| 2026-05-06 22:28 | 51.31848 | 2.02267 | 33016 ft | 463 kts | 120° |
| 2026-05-06 22:29 | 51.28717 | 2.11157 | 33013 ft | 462 kts | 120° |
| 2026-05-06 22:29 | 51.25553 | 2.20107 | 33012 ft | 462 kts | 120° |
| 2026-05-06 22:30 | 51.23981 | 2.24542 | 32778 ft | 461 kts | 120° |
| 2026-05-06 22:30 | 51.22405 | 2.28982 | 32377 ft | 459 kts | 120° |
| 2026-05-06 22:30 | 51.20857 | 2.33339 | 31819 ft | 455 kts | 120° |
| 2026-05-06 22:30 | 51.19313 | 2.37675 | 31134 ft | 454 kts | 120° |
| 2026-05-06 22:31 | 51.17751 | 2.42056 | 30342 ft | 455 kts | 120° |
| 2026-05-06 22:31 | 51.16201 | 2.46397 | 29541 ft | 455 kts | 120° |
| 2026-05-06 22:31 | 51.14646 | 2.50738 | 28760 ft | 454 kts | 120° |
| 2026-05-06 22:31 | 51.13092 | 2.55071 | 27945 ft | 454 kts | 120° |
| 2026-05-06 22:32 | 51.11541 | 2.59397 | 27299 ft | 451 kts | 119° |
| 2026-05-06 22:32 | 51.10173 | 2.63874 | 26779 ft | 449 kts | 112° |
| 2026-05-06 22:32 | 51.09139 | 2.68515 | 26235 ft | 445 kts | 107° |
| 2026-05-06 22:32 | 51.08424 | 2.73303 | 25680 ft | 441 kts | 102° |
| 2026-05-06 22:33 | 51.07852 | 2.78012 | 25130 ft | 437 kts | 101° |
| 2026-05-06 22:33 | 51.07298 | 2.82763 | 24577 ft | 433 kts | 101° |
| 2026-05-06 22:33 | 51.06760 | 2.87368 | 24033 ft | 429 kts | 101° |
| 2026-05-06 22:33 | 51.06207 | 2.92026 | 23504 ft | 425 kts | 101° |
| 2026-05-06 22:34 | 51.05660 | 2.96581 | 22975 ft | 421 kts | 101° |
| 2026-05-06 22:34 | 51.05110 | 3.01124 | 22429 ft | 417 kts | 101° |
| 2026-05-06 22:34 | 51.04568 | 3.05568 | 21887 ft | 413 kts | 101° |
| 2026-05-06 22:34 | 51.04019 | 3.10042 | 21342 ft | 410 kts | 101° |
| 2026-05-06 22:35 | 51.03475 | 3.14461 | 20775 ft | 407 kts | 101° |
| 2026-05-06 22:35 | 51.02937 | 3.18809 | 20237 ft | 403 kts | 101° |
| 2026-05-06 22:35 | 51.02405 | 3.23110 | 19724 ft | 401 kts | 101° |
| 2026-05-06 22:35 | 51.01870 | 3.27416 | 19190 ft | 398 kts | 101° |
| 2026-05-06 22:36 | 51.01334 | 3.31714 | 18675 ft | 395 kts | 101° |
| 2026-05-06 22:36 | 51.00803 | 3.35951 | 18171 ft | 392 kts | 101° |
| 2026-05-06 22:36 | 51.00276 | 3.40156 | 17668 ft | 389 kts | 101° |
| 2026-05-06 22:36 | 50.99747 | 3.44353 | 17232 ft | 389 kts | 101° |
| 2026-05-06 22:37 | 50.99223 | 3.48501 | 16769 ft | 386 kts | 101° |
| 2026-05-06 22:37 | 50.98698 | 3.52649 | 16266 ft | 384 kts | 100° |
| 2026-05-06 22:37 | 50.98173 | 3.56778 | 15757 ft | 381 kts | 100° |
| 2026-05-06 22:37 | 50.97651 | 3.60874 | 15248 ft | 379 kts | 100° |
| 2026-05-06 22:38 | 50.97130 | 3.64949 | 14728 ft | 377 kts | 100° |
| 2026-05-06 22:38 | 50.96612 | 3.68987 | 14217 ft | 374 kts | 101° |
| 2026-05-06 22:38 | 50.96094 | 3.73030 | 13696 ft | 372 kts | 101° |
| 2026-05-06 22:38 | 50.95583 | 3.76993 | 13192 ft | 369 kts | 101° |
| 2026-05-06 22:39 | 50.95068 | 3.80988 | 12674 ft | 366 kts | 101° |
| 2026-05-06 22:39 | 50.94558 | 3.84914 | 12163 ft | 363 kts | 101° |
| 2026-05-06 22:39 | 50.94057 | 3.88765 | 11665 ft | 359 kts | 101° |
| 2026-05-06 22:39 | 50.93552 | 3.92630 | 11165 ft | 356 kts | 101° |
| 2026-05-06 22:40 | 50.93075 | 3.96419 | 10764 ft | 347 kts | 97° |
| 2026-05-06 22:40 | 50.93051 | 4.00084 | 10556 ft | 331 kts | 81° |
| 2026-05-06 22:40 | 50.93591 | 4.03500 | 10396 ft | 317 kts | 70° |
| 2026-05-06 22:40 | 50.94321 | 4.06711 | 10223 ft | 304 kts | 68° |
| 2026-05-06 22:41 | 50.95743 | 4.12730 | 9922 ft | 281 kts | 68° |
| 2026-05-06 22:41 | 50.96420 | 4.15630 | 9616 ft | 278 kts | 68° |
| 2026-05-06 22:41 | 50.97082 | 4.18493 | 9246 ft | 277 kts | 68° |
| 2026-05-06 22:42 | 50.97736 | 4.21334 | 8903 ft | 275 kts | 68° |
| 2026-05-06 22:42 | 50.98385 | 4.24173 | 8558 ft | 274 kts | 68° |
| 2026-05-06 22:42 | 50.99028 | 4.26995 | 8164 ft | 271 kts | 68° |
| 2026-05-06 22:42 | 50.99670 | 4.29822 | 7851 ft | 268 kts | 68° |
| 2026-05-06 22:43 | 51.00293 | 4.32565 | 7539 ft | 266 kts | 68° |
| 2026-05-06 22:43 | 51.00915 | 4.35306 | 7205 ft | 264 kts | 68° |
| 2026-05-06 22:43 | 51.01536 | 4.38052 | 6883 ft | 262 kts | 68° |
| 2026-05-06 22:43 | 51.02148 | 4.40763 | 6555 ft | 261 kts | 68° |
| 2026-05-06 22:44 | 51.02758 | 4.43463 | 6232 ft | 259 kts | 68° |
| 2026-05-06 22:44 | 51.03359 | 4.46132 | 5908 ft | 257 kts | 68° |
| 2026-05-06 22:44 | 51.03952 | 4.48770 | 5589 ft | 255 kts | 68° |
| 2026-05-06 22:44 | 51.04551 | 4.51431 | 5272 ft | 253 kts | 68° |
| 2026-05-06 22:45 | 51.05138 | 4.54043 | 4955 ft | 251 kts | 68° |
| 2026-05-06 22:45 | 51.05715 | 4.56616 | 4633 ft | 250 kts | 68° |
| 2026-05-06 22:45 | 51.06295 | 4.59208 | 4308 ft | 248 kts | 68° |
| 2026-05-06 22:45 | 51.06870 | 4.61780 | 3986 ft | 246 kts | 68° |
| 2026-05-06 22:46 | 51.07437 | 4.64315 | 3671 ft | 245 kts | 68° |
| 2026-05-06 22:46 | 51.08002 | 4.66848 | 3397 ft | 241 kts | 69° |
| 2026-05-06 22:46 | 51.08376 | 4.69383 | 3324 ft | 232 kts | 90° |
| 2026-05-06 22:46 | 51.07812 | 4.71711 | 3268 ft | 229 kts | 127° |
| 2026-05-06 22:47 | 51.06511 | 4.73107 | 3221 ft | 225 kts | 156° |
| 2026-05-06 22:47 | 51.05059 | 4.73889 | 3189 ft | 214 kts | 158° |
| 2026-05-06 22:47 | 51.03667 | 4.74636 | 3140 ft | 213 kts | 157° |
| 2026-05-06 22:47 | 51.02264 | 4.75417 | 3067 ft | 209 kts | 156° |
| 2026-05-06 22:48 | 51.00913 | 4.76184 | 2931 ft | 203 kts | 156° |
| 2026-05-06 22:48 | 50.99601 | 4.76940 | 2721 ft | 201 kts | 156° |
| 2026-05-06 22:48 | 50.98277 | 4.77709 | 2410 ft | 204 kts | 156° |
| 2026-05-06 22:48 | 50.96953 | 4.78474 | 2130 ft | 206 kts | 159° |
| 2026-05-06 22:49 | 50.95551 | 4.78615 | 1966 ft | 204 kts | 200° |
| 2026-05-06 22:49 | 50.94535 | 4.77226 | 1955 ft | 193 kts | 251° |
| 2026-05-06 22:49 | 50.94331 | 4.75166 | 2003 ft | 189 kts | 271° |
| 2026-05-06 22:49 | 50.94255 | 4.73104 | 2031 ft | 185 kts | 269° |
| 2026-05-06 22:50 | 50.94062 | 4.71178 | 2018 ft | 171 kts | 261° |
| 2026-05-06 22:50 | 50.93769 | 4.69409 | 1978 ft | 157 kts | 258° |
| 2026-05-06 22:50 | 50.93454 | 4.67762 | 1987 ft | 156 kts | 256° |
| 2026-05-06 22:50 | 50.93102 | 4.66136 | 1964 ft | 157 kts | 253° |
| 2026-05-06 22:51 | 50.92725 | 4.64511 | 1778 ft | 156 kts | 253° |
| 2026-05-06 22:51 | 50.92353 | 4.62928 | 1593 ft | 148 kts | 252° |
| 2026-05-06 22:51 | 50.92005 | 4.61450 | 1369 ft | 138 kts | 253° |
| 2026-05-06 22:51 | 50.91680 | 4.60048 | 1187 ft | 136 kts | 253° |
| 2026-05-06 22:52 | 50.91356 | 4.58647 | 1008 ft | 134 kts | 252° |
| 2026-05-06 22:52 | 50.91035 | 4.57263 | 832 ft | 132 kts | 252° |
| 2026-05-06 22:52 | 50.90722 | 4.55909 | 656 ft | 131 kts | 252° |
| 2026-05-06 22:52 | 50.90409 | 4.54557 | 479 ft | 129 kts | 252° |
| 2026-05-06 22:53 | 50.90106 | 4.53236 | 302 ft | 128 kts | 252° |
| 2026-05-06 22:53 | 50.89801 | 4.51921 | 157 ft | 125 kts | 251° |
| 2026-05-06 22:53 | 50.89537 | 4.50781 | 153 ft | 88 kts | 250° |
| 2026-05-06 22:53 | 50.89384 | 4.50118 | 156 ft | 38 kts | 251° |
| 2026-05-06 22:54 | 50.89331 | 4.49820 | 157 ft | 23 kts | 275° |
| 2026-05-06 22:54 | 50.89409 | 4.49589 | 153 ft | 24 kts | 308° |
| 2026-05-06 22:54 | 50.89516 | 4.49365 | 152 ft | 24 kts | 308° |
| 2026-05-06 22:54 | 50.89594 | 4.49202 | 155 ft | 15 kts | 307° |
| 2026-05-06 22:55 | 50.89658 | 4.49148 | 156 ft | 11 kts | 15° |
| 2026-05-06 22:55 | 50.89740 | 4.49183 | 156 ft | 13 kts | 14° |
| 2026-05-06 22:55 | 50.89834 | 4.49221 | 155 ft | 14 kts | 15° |
| 2026-05-06 22:55 | 50.89943 | 4.49266 | 153 ft | 17 kts | 15° |
| 2026-05-06 22:56 | 50.90066 | 4.49315 | 151 ft | 19 kts | 15° |
| 2026-05-06 22:56 | 50.90209 | 4.49374 | 144 ft | 23 kts | 14° |
| 2026-05-06 22:56 | 50.90313 | 4.49403 | 139 ft | 11 kts | 336° |
| 2026-05-06 22:56 | 50.90319 | 4.49290 | 141 ft | 11 kts | 246° |
| 2026-05-06 22:57 | 50.90292 | 4.49196 | 142 ft | 8 kts | 246° |
| 2026-05-06 22:57 | 50.90264 | 4.49101 | 140 ft | 11 kts | 245° |
| 2026-05-06 22:57 | 50.90228 | 4.48971 | 139 ft | 13 kts | 246° |
| 2026-05-06 22:57 | 50.90204 | 4.48888 | 139 ft | 5 kts | 246° |
| 2026-05-06 22:58 | 50.90184 | 4.48822 | 138 ft | 7 kts | 245° |
| 2026-05-06 22:58 | 50.90139 | 4.48788 | 140 ft | 7 kts | 146° |
| 2026-05-06 22:58 | 50.90111 | 4.48820 | 143 ft | 2 kts | 155° |
| 2026-05-06 22:58 | 50.90105 | 4.48825 | 143 ft | 0 kts | 154° |
| 2026-05-06 22:59 | 50.90100 | 4.48829 | 144 ft | 0 kts | 154° |